Time;durP1;ratioP1;P1;durP2;ratioP2;P2;SDS_P1;SDS_P2;PMS_P1;PMS_P2;Temp;Humidity;BMP_temperature;BMP_pressure;BME280_temperature;BME280_humidity;BME280_pressure;Samples;Min_cycle;Max_cycle;Signal;HPM_P1;HPM_P2
2023/01/09 00:00:15;;;;;;;5.53;1.70;;;6.40;99.90;;;;;;5109717;28;20051;-80
2023/01/09 00:03:01;;;;;;;7.63;1.80;;;6.50;99.90;;;;;;5111240;28;20044;-79
2023/01/09 00:05:48;;;;;;;7.38;1.90;;;6.50;99.90;;;;;;5093160;28;20052;-79
2023/01/09 00:08:34;;;;;;;4.53;2.22;;;6.60;99.90;;;;;;5097223;28;20051;-84
2023/01/09 00:11:20;;;;;;;10.20;2.05;;;6.70;99.90;;;;;;5116814;28;20043;-85
2023/01/09 00:14:07;;;;;;;9.18;1.95;;;6.70;99.90;;;;;;5078763;28;20451;-79
2023/01/09 00:16:56;;;;;;;8.93;3.58;;;6.70;99.90;;;;;;5111981;28;20081;-79
2023/01/09 00:19:42;;;;;;;9.10;2.05;;;6.70;99.90;;;;;;5110958;28;20054;-80
2023/01/09 00:22:28;;;;;;;8.73;2.15;;;6.70;99.90;;;;;;5111358;28;20104;-81
2023/01/09 00:25:14;;;;;;;8.27;2.00;;;6.80;99.90;;;;;;5110646;28;20051;-80
2023/01/09 00:28:01;;;;;;;6.50;1.80;;;6.80;99.90;;;;;;5111883;28;20055;-81
2023/01/09 00:30:55;;;;;;;8.98;2.55;;;6.80;99.90;;;;;;5092672;28;20097;-79
2023/01/09 00:34:01;;;;;;;7.18;2.17;;;6.80;99.90;;;;;;5092237;28;20105;-85
2023/01/09 00:36:47;;;;;;;4.97;2.20;;;6.80;99.90;;;;;;5116698;28;20526;-80
2023/01/09 00:39:33;;;;;;;9.93;2.30;;;6.80;99.90;;;;;;5112452;28;20522;-79
2023/01/09 00:42:23;;;;;;;7.95;2.22;;;6.80;99.90;;;;;;5111262;28;20054;-79
2023/01/09 00:45:18;;;;;;;8.13;2.00;;;6.90;99.90;;;;;;5093340;28;20169;-80
2023/01/09 00:48:12;;;;;;;7.00;1.95;;;6.90;99.90;;;;;;5111345;28;20057;-79
2023/01/09 00:50:59;;;;;;;11.05;2.25;;;6.90;99.90;;;;;;5111165;28;20048;-81
2023/01/09 00:53:48;;;;;;;7.55;1.90;;;6.90;99.90;;;;;;5112013;28;20051;-80
2023/01/09 00:56:35;;;;;;;4.60;2.20;;;7.00;99.90;;;;;;5094785;28;20052;-78
2023/01/09 00:59:22;;;;;;;4.82;1.92;;;7.00;99.90;;;;;;5099808;28;20134;-81
2023/01/09 01:02:09;;;;;;;4.95;2.08;;;7.00;99.90;;;;;;5102301;28;20672;-82
2023/01/09 01:08:00;;;;;;;5.30;1.92;;;7.20;99.90;;;;;;5093691;28;20047;-78
2023/01/09 01:10:47;;;;;;;5.28;1.80;;;7.20;99.90;;;;;;5111622;28;20039;-84
2023/01/09 01:13:33;;;;;;;4.97;1.65;;;7.20;99.90;;;;;;5112300;28;20058;-80
2023/01/09 01:16:20;;;;;;;5.57;1.98;;;7.20;99.90;;;;;;5112550;28;20055;-81
2023/01/09 01:19:06;;;;;;;9.82;1.98;;;7.20;99.90;;;;;;5113094;28;20417;-79
2023/01/09 01:21:52;;;;;;;9.73;2.75;;;7.20;99.90;;;;;;5119374;28;20047;-84
2023/01/09 01:24:38;;;;;;;6.55;1.77;;;7.20;99.90;;;;;;5065996;28;20058;-82
2023/01/09 01:27:27;;;;;;;5.50;1.90;;;7.20;99.90;;;;;;5095908;28;20049;-82
2023/01/09 01:30:14;;;;;;;7.45;2.72;;;7.20;99.90;;;;;;5109964;28;20052;-86
2023/01/09 01:33:00;;;;;;;8.73;2.03;;;7.20;99.90;;;;;;5111328;28;20092;-80
2023/01/09 01:35:46;;;;;;;5.22;2.33;;;7.30;99.90;;;;;;5091400;28;20061;-83
2023/01/09 01:38:33;;;;;;;7.18;1.60;;;7.20;99.90;;;;;;5114540;28;20130;-79
2023/01/09 01:41:28;;;;;;;5.70;1.70;;;7.20;99.90;;;;;;5094078;28;20104;-83
2023/01/09 01:44:52;;;;;;;5.72;2.05;;;7.20;99.90;;;;;;5109781;28;20100;-81
2023/01/09 01:47:41;;;;;;;5.68;1.73;;;7.20;99.90;;;;;;5110036;28;20079;-83
2023/01/09 01:50:44;;;;;;;9.00;2.10;;;7.20;99.90;;;;;;5110883;28;20491;-81
2023/01/09 01:53:34;;;;;;;14.63;5.18;;;7.20;99.90;;;;;;5109577;28;20055;-82
2023/01/09 01:56:36;;;;;;;6.18;1.85;;;7.20;99.90;;;;;;5111103;28;20093;-79
2023/01/09 01:59:32;;;;;;;6.22;1.98;;;7.10;99.90;;;;;;5113140;28;20047;-83
2023/01/09 02:02:24;;;;;;;8.23;2.20;;;7.10;99.90;;;;;;5091187;28;20100;-85
2023/01/09 02:05:11;;;;;;;6.30;2.03;;;7.10;99.90;;;;;;5091758;28;20556;-86
2023/01/09 02:07:57;;;;;;;8.85;2.30;;;7.10;99.90;;;;;;5109541;28;20058;-80
2023/01/09 02:10:44;;;;;;;6.15;1.67;;;7.00;99.90;;;;;;5110188;28;20449;-83
2023/01/09 02:13:34;;;;;;;9.57;2.47;;;7.00;99.90;;;;;;5091152;28;20445;-80
2023/01/09 02:16:50;;;;;;;7.70;2.10;;;7.00;99.90;;;;;;5094873;28;20043;-86
2023/01/09 02:19:53;;;;;;;6.60;1.75;;;6.90;99.90;;;;;;5115292;28;20466;-78
2023/01/09 02:22:48;;;;;;;10.55;2.15;;;6.80;99.90;;;;;;5109907;28;20426;-79
2023/01/09 02:25:34;;;;;;;10.23;2.88;;;6.80;99.90;;;;;;5112753;28;20104;-78
2023/01/09 02:29:02;;;;;;;8.50;2.13;;;6.80;99.90;;;;;;5112766;28;20043;-81
2023/01/09 02:32:02;;;;;;;7.70;2.08;;;6.70;99.90;;;;;;5113751;28;20074;-81
2023/01/09 02:35:03;;;;;;;9.55;2.20;;;6.70;99.90;;;;;;5113272;28;20048;-79
2023/01/09 02:38:04;;;;;;;8.75;2.35;;;6.60;99.90;;;;;;5112810;28;20047;-82
2023/01/09 02:41:00;;;;;;;7.13;2.20;;;6.60;99.90;;;;;;5093365;28;20399;-79
2023/01/09 02:43:47;;;;;;;7.68;2.95;;;6.60;99.90;;;;;;5114540;28;20552;-86
2023/01/09 02:46:33;;;;;;;10.45;1.85;;;6.50;99.90;;;;;;5097545;28;20050;-79
2023/01/09 02:49:19;;;;;;;13.63;2.60;;;6.50;99.90;;;;;;5113483;28;20082;-80
2023/01/09 02:52:27;;;;;;;7.88;1.77;;;6.50;99.90;;;;;;5112761;28;20050;-79
2023/01/09 02:55:23;;;;;;;9.30;2.15;;;6.40;99.90;;;;;;5093451;28;20437;-80
2023/01/09 02:58:34;;;;;;;10.43;2.13;;;6.40;99.90;;;;;;5094521;28;20111;-81
2023/01/09 03:01:43;;;;;;;7.70;2.40;;;6.40;99.90;;;;;;5094985;28;20051;-80
2023/01/09 03:04:45;;;;;;;8.95;2.10;;;6.30;99.90;;;;;;5095250;28;20061;-84
2023/01/09 03:07:54;;;;;;;12.23;2.38;;;6.30;99.90;;;;;;5120114;28;20059;-87
2023/01/09 03:10:49;;;;;;;9.38;2.47;;;6.20;99.90;;;;;;5094250;28;20056;-79
2023/01/09 03:13:52;;;;;;;9.63;3.03;;;6.20;99.90;;;;;;5094692;28;20055;-79
2023/01/09 03:16:39;;;;;;;16.30;2.97;;;6.20;99.90;;;;;;5094418;28;20145;-80
2023/01/09 03:19:29;;;;;;;8.93;2.35;;;6.10;99.90;;;;;;5112547;28;20048;-79
2023/01/09 03:22:15;;;;;;;8.85;2.25;;;6.10;99.90;;;;;;5113042;28;20083;-79
2023/01/09 03:25:01;;;;;;;11.32;2.40;;;6.10;99.90;;;;;;5112929;28;20568;-80
2023/01/09 03:27:58;;;;;;;12.00;2.38;;;6.00;99.90;;;;;;5121017;28;20372;-81
2023/01/09 03:30:44;;;;;;;9.88;2.40;;;6.00;99.90;;;;;;5093717;28;20138;-80
2023/01/09 03:33:30;;;;;;;8.77;2.92;;;6.10;99.90;;;;;;5094262;28;20059;-81
2023/01/09 03:36:20;;;;;;;9.38;2.20;;;6.00;99.90;;;;;;5093324;28;20528;-79
2023/01/09 03:39:06;;;;;;;8.25;2.70;;;6.00;99.90;;;;;;5093500;28;20563;-80
2023/01/09 03:41:52;;;;;;;8.20;2.28;;;6.00;99.90;;;;;;5112315;28;20457;-78
2023/01/09 03:44:38;;;;;;;9.27;2.80;;;5.90;99.90;;;;;;5111801;28;20411;-79
2023/01/09 03:47:25;;;;;;;8.77;2.70;;;5.80;99.90;;;;;;5093610;28;20047;-81
2023/01/09 03:50:11;;;;;;;7.70;3.05;;;5.80;99.90;;;;;;5102143;28;20047;-80
2023/01/09 03:52:57;;;;;;;10.07;2.80;;;5.80;99.90;;;;;;5097194;28;20059;-80
2023/01/09 03:55:46;;;;;;;13.32;3.40;;;5.70;99.90;;;;;;5092448;28;20142;-80
2023/01/09 03:58:32;;;;;;;12.18;2.65;;;5.60;99.90;;;;;;5111823;28;20120;-79
2023/01/09 04:01:18;;;;;;;10.80;3.53;;;5.60;99.90;;;;;;5097033;28;20039;-79
2023/01/09 04:04:04;;;;;;;9.40;3.95;;;5.60;99.90;;;;;;5110989;28;20051;-83
2023/01/09 04:06:50;;;;;;;16.80;4.00;;;5.60;99.90;;;;;;5094191;28;20051;-81
2023/01/09 04:09:37;;;;;;;9.82;2.90;;;5.60;99.90;;;;;;5112682;28;20483;-81
2023/01/09 04:12:23;;;;;;;9.05;2.90;;;5.60;99.90;;;;;;5093711;28;20058;-87
2023/01/09 04:15:10;;;;;;;11.95;2.95;;;5.60;99.90;;;;;;5116850;28;20142;-79
2023/01/09 04:17:56;;;;;;;8.18;3.30;;;5.60;99.90;;;;;;5093976;28;20055;-82
2023/01/09 04:20:45;;;;;;;10.45;3.15;;;5.60;99.90;;;;;;5078533;28;20047;-80
2023/01/09 04:23:31;;;;;;;11.95;3.22;;;5.60;99.90;;;;;;5109975;28;20119;-80
2023/01/09 04:26:17;;;;;;;13.60;3.80;;;5.60;99.90;;;;;;5111877;28;20446;-79
2023/01/09 04:29:04;;;;;;;12.57;2.83;;;5.60;99.90;;;;;;5110961;28;20048;-83
2023/01/09 04:31:50;;;;;;;14.80;4.18;;;5.60;99.90;;;;;;5110900;28;20388;-81
2023/01/09 04:34:36;;;;;;;5.70;2.35;;;5.60;99.90;;;;;;5111128;28;20089;-86
2023/01/09 04:37:25;;;;;;;7.60;3.35;;;5.60;99.90;;;;;;5104126;28;20047;-81
2023/01/09 04:40:12;;;;;;;12.02;3.30;;;5.60;99.90;;;;;;5095615;28;20087;-85
2023/01/09 04:42:58;;;;;;;8.63;3.53;;;5.50;99.90;;;;;;5110723;28;20570;-84
2023/01/09 04:45:44;;;;;;;11.20;3.53;;;5.50;99.90;;;;;;5091400;28;20051;-84
2023/01/09 04:48:30;;;;;;;10.40;4.50;;;5.50;99.90;;;;;;5091341;28;20063;-79
2023/01/09 04:51:16;;;;;;;9.20;3.95;;;5.50;99.90;;;;;;5109083;28;20043;-78
2023/01/09 04:54:03;;;;;;;11.05;3.92;;;5.50;99.90;;;;;;5110385;28;20062;-81
2023/01/09 04:56:49;;;;;;;14.95;4.88;;;5.50;99.90;;;;;;5093271;28;20059;-78
2023/01/09 04:59:35;;;;;;;11.48;4.32;;;5.50;99.90;;;;;;5112922;28;20143;-83
2023/01/09 05:02:21;;;;;;;15.02;4.88;;;5.60;99.90;;;;;;5115712;28;20068;-79
2023/01/09 05:05:09;;;;;;;29.10;6.65;;;5.60;99.90;;;;;;5110841;28;20051;-79
2023/01/09 05:07:55;;;;;;;17.45;5.55;;;5.60;99.90;;;;;;5111087;28;20055;-80
2023/01/09 05:10:42;;;;;;;14.27;4.68;;;5.70;99.90;;;;;;5095603;28;20051;-80
2023/01/09 05:13:28;;;;;;;11.77;4.55;;;5.70;99.90;;;;;;5109971;28;20055;-80
2023/01/09 05:16:14;;;;;;;12.50;4.32;;;5.70;99.90;;;;;;5091994;28;20047;-81
2023/01/09 05:19:00;;;;;;;13.30;4.82;;;5.60;99.90;;;;;;5092052;28;20051;-82
2023/01/09 05:21:46;;;;;;;10.07;4.63;;;5.60;99.90;;;;;;5093768;28;20051;-84
2023/01/09 05:24:33;;;;;;;11.98;4.57;;;5.50;99.90;;;;;;5110805;28;20509;-79
2023/01/09 05:27:19;;;;;;;12.10;4.60;;;5.50;99.90;;;;;;5077111;28;20089;-80
2023/01/09 05:30:06;;;;;;;15.40;4.65;;;5.40;99.90;;;;;;5110229;28;20136;-81
2023/01/09 05:32:52;;;;;;;18.10;5.10;;;5.40;99.90;;;;;;5110554;28;20043;-84
2023/01/09 05:35:38;;;;;;;16.13;5.47;;;5.40;99.90;;;;;;5108487;28;20100;-82
2023/01/09 05:38:24;;;;;;;13.43;5.75;;;5.40;99.90;;;;;;5091569;28;20051;-84
2023/01/09 05:41:11;;;;;;;16.15;5.38;;;5.40;99.90;;;;;;5093006;28;20047;-85
2023/01/09 05:43:57;;;;;;;14.52;5.57;;;5.40;99.90;;;;;;5098691;28;20510;-83
2023/01/09 05:46:43;;;;;;;18.77;6.68;;;5.40;99.90;;;;;;5110328;28;20095;-80
2023/01/09 05:49:29;;;;;;;17.13;5.70;;;5.40;99.90;;;;;;5077784;28;20062;-80
2023/01/09 05:52:16;;;;;;;13.88;5.60;;;5.40;99.90;;;;;;5077340;28;20077;-80
2023/01/09 05:55:02;;;;;;;13.88;5.55;;;5.50;99.90;;;;;;5110390;28;20073;-80
2023/01/09 05:57:49;;;;;;;13.10;5.57;;;5.50;99.90;;;;;;5090376;28;20055;-79
2023/01/09 06:00:35;;;;;;;15.57;6.57;;;5.50;99.90;;;;;;5077451;28;20051;-85
2023/01/09 06:03:21;;;;;;;15.07;6.10;;;5.50;99.90;;;;;;5096438;28;20415;-79
2023/01/09 06:06:08;;;;;;;18.42;7.45;;;5.60;99.90;;;;;;5110636;28;20048;-81
2023/01/09 06:08:54;;;;;;;17.65;7.25;;;5.60;99.90;;;;;;5087502;28;20052;-80
2023/01/09 06:11:40;;;;;;;15.07;7.93;;;5.70;99.90;;;;;;5084156;28;20084;-80
2023/01/09 06:14:26;;;;;;;13.93;8.00;;;5.70;99.90;;;;;;5093694;28;20057;-81
2023/01/09 06:17:12;;;;;;;16.67;6.93;;;5.80;99.90;;;;;;5108847;28;20126;-81
2023/01/09 06:19:58;;;;;;;20.55;8.43;;;5.80;99.90;;;;;;5108502;28;20062;-82
2023/01/09 06:22:45;;;;;;;18.63;8.50;;;5.80;99.90;;;;;;5090730;28;20051;-79
2023/01/09 06:25:31;;;;;;;16.88;7.90;;;5.80;99.90;;;;;;5109788;28;20054;-86
2023/01/09 06:28:17;;;;;;;19.55;8.15;;;5.90;99.90;;;;;;5097806;28;20138;-83
2023/01/09 06:31:04;;;;;;;17.77;8.73;;;5.90;99.90;;;;;;5108458;28;20047;-80
2023/01/09 06:33:50;;;;;;;23.33;8.60;;;5.90;99.90;;;;;;5109273;28;20054;-82
2023/01/09 06:36:36;;;;;;;19.75;9.05;;;5.90;99.90;;;;;;5107920;28;20062;-81
2023/01/09 06:39:22;;;;;;;20.63;10.20;;;5.90;99.90;;;;;;5077246;28;20047;-78
2023/01/09 06:42:09;;;;;;;26.15;10.60;;;5.90;99.90;;;;;;5109624;28;20054;-83
2023/01/09 06:44:55;;;;;;;23.88;10.57;;;5.90;99.90;;;;;;5109198;28;20523;-80
2023/01/09 06:47:41;;;;;;;21.17;11.48;;;5.90;99.90;;;;;;5092200;28;20051;-81
2023/01/09 06:50:28;;;;;;;21.80;10.82;;;5.90;99.90;;;;;;5094763;28;20091;-78
2023/01/09 06:53:14;;;;;;;19.90;11.05;;;5.90;99.90;;;;;;5097904;28;20109;-80
2023/01/09 06:56:03;;;;;;;19.83;10.90;;;5.90;99.90;;;;;;5090889;28;20142;-82
2023/01/09 06:58:49;;;;;;;21.67;12.23;;;5.90;99.90;;;;;;5110136;28;20055;-79
2023/01/09 07:01:38;;;;;;;20.27;11.65;;;5.90;99.90;;;;;;5108693;28;20087;-80
2023/01/09 07:04:24;;;;;;;24.80;12.27;;;5.90;99.90;;;;;;5108910;28;20051;-81
2023/01/09 07:07:10;;;;;;;21.10;12.40;;;5.90;99.90;;;;;;5108917;28;20762;-80
2023/01/09 07:09:57;;;;;;;30.38;12.20;;;5.90;99.90;;;;;;5094905;28;20495;-86
2023/01/09 07:12:43;;;;;;;29.40;16.10;;;5.90;99.90;;;;;;5118353;28;20047;-81
2023/01/09 07:15:29;;;;;;;26.85;12.23;;;5.90;99.90;;;;;;5095368;28;20051;-81
2023/01/09 07:18:15;;;;;;;24.58;13.18;;;5.90;99.90;;;;;;5094652;28;20135;-81
2023/01/09 07:21:01;;;;;;;23.67;13.75;;;6.00;99.90;;;;;;5112812;28;20051;-81
2023/01/09 07:23:48;;;;;;;26.88;13.80;;;5.90;99.90;;;;;;5095236;28;20051;-79
2023/01/09 07:26:34;;;;;;;27.50;14.10;;;5.90;99.90;;;;;;5096842;28;20062;-80
2023/01/09 07:29:20;;;;;;;26.83;14.35;;;6.00;99.90;;;;;;5097388;28;20127;-81
2023/01/09 07:32:06;;;;;;;25.90;14.35;;;5.90;99.90;;;;;;5113422;28;20051;-80
2023/01/09 07:34:53;;;;;;;25.25;14.77;;;5.90;99.90;;;;;;5095797;28;20044;-86
2023/01/09 07:37:39;;;;;;;33.75;16.52;;;5.90;99.90;;;;;;5116971;28;20047;-85
2023/01/09 07:40:25;;;;;;;24.02;14.07;;;5.90;99.90;;;;;;5118516;28;20047;-80
2023/01/09 07:43:12;;;;;;;22.95;14.80;;;6.00;99.90;;;;;;5113176;28;20097;-79
2023/01/09 07:45:58;;;;;;;22.98;13.43;;;5.90;99.90;;;;;;5111870;28;20522;-80
2023/01/09 07:48:44;;;;;;;22.35;13.35;;;5.90;99.90;;;;;;5100179;28;20043;-80
2023/01/09 07:51:30;;;;;;;25.27;13.80;;;5.90;99.90;;;;;;5113701;28;20059;-79
2023/01/09 07:54:17;;;;;;;25.83;14.00;;;5.90;99.90;;;;;;5115227;28;20039;-78
2023/01/09 07:57:03;;;;;;;19.60;13.07;;;5.90;99.90;;;;;;5102884;28;20104;-84
2023/01/09 07:59:49;;;;;;;26.60;12.60;;;5.90;99.90;;;;;;5114533;28;20047;-79
2023/01/09 08:02:36;;;;;;;21.70;13.13;;;5.90;99.90;;;;;;5113566;28;20196;-79
2023/01/09 08:05:22;;;;;;;21.88;12.90;;;5.90;99.90;;;;;;5095470;28;20039;-81
2023/01/09 08:08:08;;;;;;;23.38;13.30;;;5.90;99.90;;;;;;5116255;28;20841;-82
2023/01/09 08:10:55;;;;;;;18.92;12.43;;;5.90;99.90;;;;;;5099853;28;20078;-78
2023/01/09 08:13:41;;;;;;;25.85;12.98;;;5.90;99.90;;;;;;5114253;28;20083;-79
2023/01/09 08:16:28;;;;;;;18.92;12.65;;;5.90;99.90;;;;;;5097854;28;20495;-80
2023/01/09 08:19:14;;;;;;;22.65;13.00;;;5.90;99.90;;;;;;5095169;28;20059;-81
2023/01/09 08:22:00;;;;;;;26.77;13.80;;;5.90;99.90;;;;;;5111341;28;20081;-80
2023/01/09 08:24:46;;;;;;;21.77;12.85;;;5.90;99.90;;;;;;5111751;28;20047;-80
2023/01/09 08:27:32;;;;;;;18.92;12.23;;;5.90;99.90;;;;;;5093357;28;20510;-84
2023/01/09 08:30:19;;;;;;;33.50;12.80;;;5.90;99.90;;;;;;5094156;28;20495;-79
2023/01/09 08:33:06;;;;;;;23.50;12.93;;;5.90;99.90;;;;;;5112871;28;20712;-82
2023/01/09 08:35:54;;;;;;;19.00;11.57;;;5.90;99.90;;;;;;5095039;28;20159;-79
2023/01/09 08:38:40;;;;;;;21.10;11.82;;;5.90;99.90;;;;;;5111834;28;20066;-83
2023/01/09 08:47:36;;;;;;;24.08;10.88;;;5.90;99.90;;;;;;5112355;28;20044;-80
2023/01/09 08:50:22;;;;;;;20.67;10.18;;;5.90;99.90;;;;;;5113824;28;20529;-82
2023/01/09 08:53:09;;;;;;;22.08;9.63;;;5.90;99.90;;;;;;5113163;28;20040;-82
2023/01/09 08:55:55;;;;;;;17.23;9.77;;;5.90;99.90;;;;;;5093118;28;20380;-82
2023/01/09 08:58:42;;;;;;;18.17;9.55;;;5.90;99.90;;;;;;5110877;28;20055;-81
2023/01/09 09:01:28;;;;;;;22.80;10.55;;;5.90;99.90;;;;;;5092572;28;20086;-83
2023/01/09 09:04:14;;;;;;;21.05;9.75;;;5.90;99.90;;;;;;5093185;28;20048;-80
2023/01/09 09:07:00;;;;;;;18.83;9.73;;;5.90;99.90;;;;;;5111250;28;20043;-83
2023/01/09 09:09:47;;;;;;;17.58;8.90;;;5.90;99.90;;;;;;5095711;28;20044;-84
2023/01/09 09:12:33;;;;;;;16.33;10.00;;;5.80;99.90;;;;;;5097601;28;20073;-79
2023/01/09 09:15:23;;;;;;;20.95;9.40;;;5.80;99.90;;;;;;5117530;28;20083;-82
2023/01/09 09:18:09;;;;;;;24.27;10.77;;;5.80;99.90;;;;;;5109813;28;20085;-79
2023/01/09 09:20:55;;;;;;;21.80;8.95;;;5.90;99.90;;;;;;5093031;28;20059;-81
2023/01/09 09:23:43;;;;;;;16.95;9.05;;;5.90;99.90;;;;;;5110739;28;20117;-83
2023/01/09 09:26:29;;;;;;;15.48;8.98;;;6.00;99.90;;;;;;5109940;28;20119;-80
2023/01/09 09:29:15;;;;;;;18.27;8.38;;;6.00;99.90;;;;;;5109975;28;20048;-79
2023/01/09 09:32:01;;;;;;;17.17;9.25;;;6.00;99.90;;;;;;5108938;28;20518;-84
2023/01/09 09:34:48;;;;;;;18.23;8.73;;;6.10;99.90;;;;;;5091936;28;20453;-84
2023/01/09 09:37:34;;;;;;;16.63;8.13;;;6.10;99.90;;;;;;5078124;28;20533;-80
2023/01/09 09:40:37;;;;;;;16.63;8.38;;;6.10;99.90;;;;;;5109643;28;20499;-80
2023/01/09 09:47:12;;;;;;;19.88;8.48;;;6.10;99.90;;;;;;5108619;28;20565;-83
2023/01/09 09:50:01;;;;;;;23.52;9.30;;;6.10;99.90;;;;;;5092047;28;20043;-78
2023/01/09 09:53:09;;;;;;;15.23;8.52;;;6.10;99.90;;;;;;5091507;28;20043;-81
2023/01/09 09:55:59;;;;;;;15.48;7.97;;;6.20;99.90;;;;;;5091254;28;20508;-80
2023/01/09 09:59:03;;;;;;;16.60;7.93;;;6.20;99.90;;;;;;5091783;28;20051;-83
2023/01/09 10:02:21;;;;;;;13.88;7.88;;;6.20;99.90;;;;;;5109794;28;20135;-81
2023/01/09 10:05:36;;;;;;;14.82;6.90;;;6.30;99.90;;;;;;5087297;28;20047;-80
2023/01/09 10:08:22;;;;;;;17.60;8.68;;;6.30;99.90;;;;;;5090714;28;20051;-79
2023/01/09 10:11:17;;;;;;;16.45;7.40;;;6.30;99.90;;;;;;5091642;28;20052;-80
2023/01/09 10:14:04;;;;;;;16.20;8.20;;;6.40;99.90;;;;;;5091233;28;20055;-78
2023/01/09 10:17:16;;;;;;;17.90;8.63;;;6.40;99.90;;;;;;5109889;28;20480;-80
2023/01/09 10:20:23;;;;;;;15.18;7.82;;;6.50;99.90;;;;;;5109786;28;20040;-78
2023/01/09 10:23:22;;;;;;;16.00;7.65;;;6.50;99.90;;;;;;5109547;28;20097;-78
2023/01/09 10:26:31;;;;;;;15.90;8.00;;;6.50;99.90;;;;;;5077737;28;20043;-81
2023/01/09 10:29:36;;;;;;;16.35;7.40;;;6.50;99.90;;;;;;5095234;28;20044;-81
2023/01/09 10:32:39;;;;;;;13.98;7.50;;;6.50;99.90;;;;;;5108674;28;20484;-78
2023/01/09 10:35:58;;;;;;;16.83;7.45;;;6.50;99.90;;;;;;5109886;28;20126;-80
2023/01/09 10:38:47;;;;;;;25.40;8.10;;;6.50;99.90;;;;;;5088535;28;20456;-78
2023/01/09 10:41:39;;;;;;;15.15;8.23;;;6.60;99.90;;;;;;5109173;28;20047;-80
2023/01/09 10:44:38;;;;;;;18.40;7.43;;;6.60;99.90;;;;;;5111486;28;20055;-81
2023/01/09 10:47:37;;;;;;;13.82;6.68;;;6.60;99.90;;;;;;5096079;28;20058;-79
2023/01/09 10:50:27;;;;;;;15.63;7.15;;;6.60;99.90;;;;;;5112442;28;20050;-79
2023/01/09 10:53:25;;;;;;;15.88;6.55;;;6.70;99.90;;;;;;5112138;28;20096;-81
2023/01/09 10:56:22;;;;;;;12.30;6.93;;;6.70;99.90;;;;;;5096985;28;20048;-79
2023/01/09 10:59:09;;;;;;;14.88;7.28;;;6.80;99.90;;;;;;5112238;28;20087;-78
2023/01/09 11:01:55;;;;;;;16.27;7.05;;;6.80;99.90;;;;;;5112037;28;20499;-79
2023/01/09 11:04:42;;;;;;;15.10;6.30;;;6.80;99.90;;;;;;5094937;28;20051;-80
2023/01/09 11:07:35;;;;;;;14.02;7.63;;;6.80;99.90;;;;;;5104342;28;20119;-84
2023/01/09 11:10:21;;;;;;;13.27;6.38;;;6.90;99.90;;;;;;5106362;28;20073;-85
2023/01/09 11:13:28;;;;;;;15.68;6.55;;;6.90;99.90;;;;;;5125693;28;20052;-84
2023/01/09 11:16:20;;;;;;;11.20;5.90;;;7.00;99.90;;;;;;5124320;28;20055;-85
2023/01/09 11:19:14;;;;;;;12.35;5.93;;;7.00;99.90;;;;;;5102807;28;20495;-83
2023/01/09 11:22:15;;;;;;;14.80;6.43;;;7.20;99.90;;;;;;5123044;28;20050;-83
2023/01/09 11:25:02;;;;;;;15.48;7.35;;;7.20;99.90;;;;;;5120032;28;20051;-85
2023/01/09 11:28:08;;;;;;;10.90;5.63;;;7.30;99.90;;;;;;5118072;28;20047;-80
2023/01/09 11:31:02;;;;;;;17.23;6.82;;;7.40;99.90;;;;;;5114475;28;20441;-82
2023/01/09 11:33:49;;;;;;;14.77;6.72;;;7.40;99.90;;;;;;5114389;28;20117;-86
2023/01/09 11:36:35;;;;;;;14.82;5.97;;;7.50;99.90;;;;;;5113823;28;20135;-81
2023/01/09 11:39:27;;;;;;;12.23;5.95;;;7.60;99.90;;;;;;5092982;28;20082;-80
2023/01/09 11:42:49;;;;;;;12.75;5.60;;;7.70;99.90;;;;;;5112330;28;20130;-80
2023/01/09 11:45:32;;;;;;;13.50;6.20;;;7.70;99.90;;;;;;5112183;28;20402;-79
2023/01/09 11:48:32;;;;;;;15.98;5.70;;;7.70;99.90;;;;;;5111875;28;20047;-78
2023/01/09 11:51:25;;;;;;;11.57;5.57;;;7.70;99.90;;;;;;5093605;28;20083;-79
2023/01/09 11:54:11;;;;;;;9.68;6.00;;;7.60;99.90;;;;;;5111622;28;20196;-78
2023/01/09 11:56:57;;;;;;;9.88;6.15;;;7.60;99.90;;;;;;5079082;28;20131;-82
2023/01/09 11:59:44;;;;;;;13.43;6.13;;;7.50;99.90;;;;;;5112322;28;20181;-79
2023/01/09 12:02:51;;;;;;;11.90;5.93;;;7.50;99.90;;;;;;5080121;28;20040;-78
2023/01/09 12:06:04;;;;;;;15.45;6.35;;;7.50;99.90;;;;;;5111908;28;20054;-78
2023/01/09 12:08:50;;;;;;;14.13;6.38;;;7.50;99.90;;;;;;5112100;28;20044;-79
2023/01/09 12:12:03;;;;;;;11.32;5.50;;;7.50;99.90;;;;;;5111623;28;20107;-79
2023/01/09 12:15:15;;;;;;;15.60;6.53;;;7.60;99.90;;;;;;5111509;28;20061;-81
2023/01/09 12:18:44;;;;;;;11.80;6.65;;;7.50;99.90;;;;;;5088701;28;20491;-79
2023/01/09 12:21:35;;;;;;;13.45;5.82;;;7.40;99.90;;;;;;5093119;28;20138;-79
2023/01/09 12:24:21;;;;;;;10.05;6.30;;;7.50;99.90;;;;;;5111581;28;20047;-81
2023/01/09 12:27:40;;;;;;;14.73;6.95;;;7.40;99.90;;;;;;5093381;28;20047;-82
2023/01/09 12:30:51;;;;;;;12.13;5.97;;;7.40;99.90;;;;;;5110299;28;20071;-80
2023/01/09 12:33:52;;;;;;;16.75;6.72;;;7.40;99.90;;;;;;5078218;28;20142;-80
2023/01/09 12:37:00;;;;;;;12.07;6.70;;;7.50;99.90;;;;;;5096149;28;20062;-78
2023/01/09 12:40:02;;;;;;;14.65;6.50;;;7.50;99.90;;;;;;5091875;28;20547;-80
2023/01/09 12:43:11;;;;;;;13.80;6.82;;;7.50;99.90;;;;;;5092840;28;20138;-79
2023/01/09 12:46:18;;;;;;;13.23;7.22;;;7.50;99.90;;;;;;5065383;28;20134;-81
2023/01/09 12:49:16;;;;;;;12.68;6.57;;;7.50;99.90;;;;;;5110855;28;20043;-80
2023/01/09 12:52:22;;;;;;;11.90;7.40;;;7.50;99.90;;;;;;5091545;28;20086;-82
2023/01/09 12:55:21;;;;;;;13.05;7.55;;;7.60;99.90;;;;;;5111044;28;20047;-79
2023/01/09 12:58:31;;;;;;;13.82;7.03;;;7.70;99.90;;;;;;5109908;28;20062;-78
2023/01/09 13:01:27;;;;;;;12.13;6.93;;;7.90;99.90;;;;;;5091609;28;20046;-79
2023/01/09 13:04:13;;;;;;;;;;;7.80;99.90;;;;;;5110452;28;20054;-79
2023/01/09 13:07:08;;;;;;;;;;;7.80;99.90;;;;;;5092500;28;19920;-81
2023/01/09 13:10:06;;;;;;;11.98;6.63;;;7.80;99.90;;;;;;5111541;28;19923;-80
2023/01/09 13:12:53;;;;;;;16.20;7.10;;;7.80;99.90;;;;;;5110194;28;20081;-80
2023/01/09 13:15:54;;;;;;;16.40;7.97;;;8.00;99.90;;;;;;5109733;28;20136;-80
2023/01/09 13:18:53;;;;;;;11.90;7.47;;;8.60;99.90;;;;;;5092874;28;20044;-78
2023/01/09 13:21:40;;;;;;;11.98;6.53;;;9.00;99.90;;;;;;5092767;28;20047;-81
2023/01/09 13:24:33;;;;;;;14.75;6.82;;;9.10;99.90;;;;;;5092043;28;20471;-79
2023/01/09 13:27:24;;;;;;;12.88;6.13;;;9.10;99.90;;;;;;5109671;28;20043;-79
2023/01/09 13:30:10;;;;;;;12.73;6.43;;;8.80;99.90;;;;;;5092353;28;20066;-79
2023/01/09 13:33:14;;;;;;;13.18;5.88;;;8.80;99.90;;;;;;5110000;28;20104;-79
2023/01/09 13:36:04;;;;;;;12.77;5.22;;;8.80;99.90;;;;;;5110054;28;20074;-79
2023/01/09 13:38:51;;;;;;;14.57;6.07;;;8.90;99.90;;;;;;5111275;28;20384;-79
2023/01/09 13:45:07;;;;;;;14.50;5.65;;;8.80;99.90;;;;;;5109528;28;20110;-79
2023/01/09 13:48:16;;;;;;;16.50;5.28;;;8.70;99.90;;;;;;5110094;28;20510;-81
2023/01/09 13:51:39;;;;;;;13.23;4.63;;;8.60;99.90;;;;;;5091538;28;20449;-79
2023/01/09 13:54:54;;;;;;;18.10;5.18;;;8.60;99.90;;;;;;5091816;28;20056;-80
2023/01/09 13:58:07;;;;;;;11.30;2.70;;;8.50;99.90;;;;;;5097157;28;20502;-81
2023/01/09 14:00:58;;;;;;;7.15;2.72;;;8.70;99.90;;;;;;5109746;28;20044;-81
2023/01/09 14:04:20;;;;;;;12.55;3.45;;;8.90;99.90;;;;;;5118310;28;20071;-84
2023/01/09 14:07:19;;;;;;;14.20;2.60;;;8.70;99.90;;;;;;5117908;28;20134;-78
2023/01/09 14:10:25;;;;;;;18.45;2.92;;;8.90;99.90;;;;;;5102054;28;20138;-80
2023/01/09 14:13:18;;;;;;;13.85;2.55;;;9.20;99.90;;;;;;5099180;28;20525;-82
2023/01/09 14:16:23;;;;;;;13.23;3.60;;;9.50;99.90;;;;;;5102123;28;20044;-80
2023/01/09 14:19:20;;;;;;;10.50;2.55;;;9.30;99.90;;;;;;5120648;28;20108;-83
2023/01/09 14:22:22;;;;;;;12.75;2.45;;;9.10;99.90;;;;;;5114132;28;20052;-84
2023/01/09 14:25:23;;;;;;;16.33;3.42;;;8.80;99.90;;;;;;5100747;28;20755;-80
2023/01/09 14:28:26;;;;;;;13.93;2.95;;;8.60;99.90;;;;;;5098692;28;20641;-79
2023/01/09 14:31:28;;;;;;;11.50;2.50;;;8.40;99.90;;;;;;5121089;28;20175;-83
2023/01/09 14:34:24;;;;;;;9.93;2.30;;;8.30;99.90;;;;;;5095833;28;20052;-81
2023/01/09 14:37:13;;;;;;;14.20;3.60;;;8.20;99.90;;;;;;5113143;28;20522;-81
2023/01/09 14:39:59;;;;;;;13.38;2.55;;;8.10;99.90;;;;;;5094914;28;20142;-85
2023/01/09 14:42:50;;;;;;;14.25;3.60;;;8.10;99.90;;;;;;5113816;28;20085;-81
2023/01/09 14:45:38;;;;;;;12.05;2.50;;;8.00;99.90;;;;;;5113019;28;20047;-80
2023/01/09 14:48:25;;;;;;;14.25;3.20;;;8.00;99.90;;;;;;5114480;28;20121;-83
2023/01/09 14:51:15;;;;;;;21.35;5.05;;;8.00;99.90;;;;;;5113228;28;20134;-83
2023/01/09 14:54:14;;;;;;;22.02;3.92;;;7.90;99.90;;;;;;5094947;28;20123;-80
2023/01/09 14:57:01;;;;;;;15.70;3.03;;;7.90;99.90;;;;;;5122767;28;20047;-80
2023/01/09 14:59:58;;;;;;;12.00;2.58;;;7.80;99.90;;;;;;5117329;28;20047;-83
2023/01/09 15:02:46;;;;;;;15.00;2.85;;;7.80;99.90;;;;;;5096687;28;20082;-81
2023/01/09 15:05:33;;;;;;;13.27;2.30;;;7.70;99.90;;;;;;5113843;28;20054;-80
2023/01/09 15:08:24;;;;;;;11.82;3.05;;;7.70;99.90;;;;;;5112756;28;20062;-80
2023/01/09 15:11:12;;;;;;;14.82;2.58;;;7.60;99.90;;;;;;5112798;28;20051;-81